createdAt,value
2023-08-23T00:03:38.224Z,21.42
2023-08-23T00:06:07.234Z,21.38
2023-08-23T00:08:34.867Z,21.37
2023-08-23T00:11:05.728Z,21.30
2023-08-23T00:13:33.438Z,21.29
2023-08-23T00:16:01.018Z,21.35
2023-08-23T00:18:28.666Z,21.28
2023-08-23T00:20:58.665Z,21.27
2023-08-23T00:23:27.687Z,21.27
2023-08-23T00:25:55.351Z,21.26
2023-08-23T00:28:23.100Z,21.25
2023-08-23T00:30:51.713Z,21.19
2023-08-23T00:33:19.637Z,21.10
2023-08-23T00:35:47.501Z,21.02
2023-08-23T00:38:15.592Z,20.97
2023-08-23T00:40:45.192Z,21.05
2023-08-23T00:43:12.863Z,21.10
2023-08-23T00:45:41.957Z,21.12
2023-08-23T00:48:13.489Z,21.10
2023-08-23T00:50:44.861Z,21.04
2023-08-23T00:53:14.384Z,20.96
2023-08-23T00:55:42.192Z,21.00
2023-08-23T00:58:11.666Z,20.98
2023-08-23T01:00:42.265Z,20.87
2023-08-23T01:03:10.312Z,20.82
2023-08-23T01:05:49.857Z,20.76
2023-08-23T01:08:25.532Z,20.82
2023-08-23T01:10:57.417Z,20.85
2023-08-23T01:13:31.504Z,20.83
2023-08-23T01:16:00.922Z,20.82
2023-08-23T01:18:29.592Z,20.69
2023-08-23T01:20:59.287Z,20.64
2023-08-23T01:23:31.023Z,20.63
2023-08-23T01:25:58.666Z,20.62
2023-08-23T01:28:26.261Z,20.58
2023-08-23T01:30:54.632Z,20.55
2023-08-23T01:33:31.271Z,20.61
2023-08-23T01:36:03.974Z,20.64
2023-08-23T01:38:36.036Z,20.62
2023-08-23T01:41:04.949Z,20.55
2023-08-23T01:43:32.646Z,20.56
2023-08-23T01:46:00.335Z,20.53
2023-08-23T01:48:29.898Z,20.50
2023-08-23T01:50:57.534Z,20.51
2023-08-23T01:53:25.200Z,20.48
2023-08-23T01:55:54.229Z,20.48
2023-08-23T01:58:21.884Z,20.49
2023-08-23T02:00:49.520Z,20.53
2023-08-23T02:03:17.462Z,20.59
2023-08-23T02:05:45.255Z,20.60
2023-08-23T02:08:13.226Z,20.64
2023-08-23T02:14:48.098Z,20.60
2023-08-23T02:17:15.729Z,20.55
2023-08-23T02:19:43.522Z,20.59
2023-08-23T02:22:11.189Z,20.53
2023-08-23T02:24:38.832Z,20.35
2023-08-23T02:27:06.608Z,20.31
2023-08-23T02:29:34.240Z,20.39
2023-08-23T02:32:03.427Z,20.40
2023-08-23T02:34:31.178Z,20.37
2023-08-23T02:36:57.826Z,20.35
2023-08-23T02:39:25.442Z,20.32
2023-08-23T02:41:53.112Z,20.32
2023-08-23T02:44:22.017Z,20.29
2023-08-23T02:46:49.768Z,20.25
2023-08-23T02:49:18.782Z,20.19
2023-08-23T02:51:46.400Z,20.19
2023-08-23T02:54:14.022Z,20.17
2023-08-23T02:56:41.681Z,20.16
2023-08-23T02:59:09.296Z,20.15
2023-08-23T03:01:37.120Z,20.11
2023-08-23T03:04:05.170Z,20.10
2023-08-23T03:06:34.175Z,20.08
2023-08-23T03:09:01.820Z,20.03
2023-08-23T03:11:29.477Z,19.99
2023-08-23T03:13:58.402Z,20.00
2023-08-23T03:16:26.117Z,19.92
2023-08-23T03:18:54.484Z,19.98
2023-08-23T03:21:22.080Z,20.03
2023-08-23T03:23:51.847Z,19.98
2023-08-23T03:26:19.542Z,19.92
2023-08-23T03:28:48.730Z,19.87
2023-08-23T03:31:18.249Z,19.85
2023-08-23T03:33:47.060Z,19.80
2023-08-23T03:36:14.756Z,19.75
2023-08-23T03:38:42.450Z,19.77
2023-08-23T03:41:15.535Z,19.71
2023-08-23T03:43:43.460Z,19.76
2023-08-23T03:46:11.237Z,19.82
2023-08-23T03:48:38.939Z,19.79
2023-08-23T03:51:06.569Z,19.80
2023-08-23T03:53:34.223Z,19.81
2023-08-23T03:56:03.641Z,19.77
2023-08-23T03:58:32.684Z,19.81
2023-08-23T04:01:00.360Z,19.82
2023-08-23T04:03:28.201Z,19.80
2023-08-23T04:05:55.992Z,19.80
2023-08-23T04:08:23.586Z,19.75
2023-08-23T04:10:52.114Z,19.76
2023-08-23T04:13:19.842Z,19.77
2023-08-23T04:15:50.284Z,19.77
2023-08-23T04:18:18.018Z,19.75
2023-08-23T04:20:45.716Z,19.77
2023-08-23T04:23:13.400Z,19.76
2023-08-23T04:25:41.041Z,19.79
2023-08-23T04:28:08.655Z,19.84
2023-08-23T04:30:36.304Z,19.82
2023-08-23T04:33:05.748Z,19.74
2023-08-23T04:35:33.493Z,19.81
2023-08-23T04:38:01.130Z,19.83
2023-08-23T04:40:30.175Z,19.82
2023-08-23T04:42:57.897Z,19.84
2023-08-23T04:45:28.394Z,19.81
2023-08-23T04:47:57.507Z,19.77
2023-08-23T04:50:26.552Z,19.79
2023-08-23T04:52:54.246Z,19.73
2023-08-23T04:55:21.918Z,19.70
2023-08-23T04:57:49.869Z,19.75
2023-08-23T05:00:18.020Z,19.71
2023-08-23T05:02:45.696Z,19.70
2023-08-23T05:05:13.479Z,19.72
2023-08-23T05:07:42.576Z,19.74
2023-08-23T05:10:10.901Z,19.69
2023-08-23T05:12:39.522Z,19.73
2023-08-23T05:15:08.550Z,19.69
2023-08-23T05:17:38.914Z,19.71
2023-08-23T05:20:09.428Z,19.59
2023-08-23T05:22:37.180Z,19.75
2023-08-23T05:25:06.665Z,19.79
2023-08-23T05:27:34.436Z,19.78
2023-08-23T05:30:05.016Z,19.85
2023-08-23T05:32:33.063Z,19.83
2023-08-23T05:35:00.883Z,19.85
2023-08-23T05:37:28.527Z,19.89
2023-08-23T05:39:56.245Z,19.91
2023-08-23T05:42:25.723Z,19.91
2023-08-23T05:44:53.456Z,19.91
2023-08-23T05:47:21.235Z,19.95
2023-08-23T05:49:49.297Z,19.99
2023-08-23T05:52:16.950Z,19.96
2023-08-23T05:54:44.633Z,20.01
2023-08-23T05:57:12.308Z,20.02
2023-08-23T05:59:41.461Z,20.06
2023-08-23T06:02:11.323Z,20.09
2023-08-23T06:04:40.694Z,20.09
2023-08-23T06:07:08.555Z,20.16
2023-08-23T06:09:36.234Z,20.20
2023-08-23T06:12:04.147Z,20.19
2023-08-23T06:14:31.853Z,20.21
2023-08-23T06:17:00.960Z,20.29
2023-08-23T06:19:28.813Z,20.16
2023-08-23T06:21:56.480Z,20.31
2023-08-23T06:24:24.134Z,20.36
2023-08-23T06:26:51.786Z,20.36
2023-08-23T06:29:19.574Z,20.35
2023-08-23T06:31:47.390Z,20.42
2023-08-23T06:34:16.346Z,20.43
2023-08-23T06:36:44.033Z,20.38
2023-08-23T06:39:23.866Z,20.47
2023-08-23T06:41:59.822Z,20.53
2023-08-23T06:44:27.479Z,20.55
2023-08-23T06:46:55.147Z,20.54
2023-08-23T06:49:42.635Z,20.55
2023-08-23T06:52:10.745Z,20.58
2023-08-23T06:54:38.382Z,20.60
2023-08-23T06:57:06.546Z,20.60
2023-08-23T06:59:34.222Z,20.69
2023-08-23T07:02:02.083Z,20.68
2023-08-23T07:04:31.253Z,20.68
2023-08-23T07:06:59.318Z,20.71
2023-08-23T07:09:26.921Z,20.74
2023-08-23T07:11:54.562Z,20.86
2023-08-23T07:14:22.217Z,20.89
2023-08-23T07:16:49.906Z,20.90
2023-08-23T07:19:17.575Z,20.92
2023-08-23T07:21:46.534Z,20.91
2023-08-23T07:24:16.128Z,21.00
2023-08-23T07:26:43.776Z,21.03
2023-08-23T07:29:13.110Z,21.03
2023-08-23T07:31:40.999Z,21.04
2023-08-23T07:34:08.621Z,21.04
2023-08-23T07:36:36.682Z,21.07
2023-08-23T07:39:05.761Z,21.15
2023-08-23T07:41:33.402Z,21.17
2023-08-23T07:44:01.114Z,21.22
2023-08-23T07:46:29.106Z,21.26
2023-08-23T07:48:56.838Z,21.25
2023-08-23T07:51:24.552Z,21.23
2023-08-23T07:53:52.227Z,21.28
2023-08-23T07:56:21.221Z,21.34
2023-08-23T07:58:48.977Z,21.32
2023-08-23T08:01:16.663Z,21.33
2023-08-23T08:03:44.386Z,21.31
2023-08-23T08:06:12.590Z,21.38
2023-08-23T08:08:43.783Z,21.40
2023-08-23T08:11:12.311Z,21.46
2023-08-23T08:13:41.395Z,21.55
2023-08-23T08:16:10.316Z,21.56
2023-08-23T08:18:38.089Z,21.58
2023-08-23T08:21:05.885Z,21.60
2023-08-23T08:23:33.682Z,21.58
2023-08-23T08:26:01.307Z,21.66
2023-08-23T08:28:29.005Z,21.69
2023-08-23T08:30:57.998Z,21.76
2023-08-23T08:33:25.812Z,21.74
2023-08-23T08:35:53.417Z,21.82
2023-08-23T08:38:23.239Z,21.83
2023-08-23T08:40:50.945Z,21.87
2023-08-23T08:43:19.179Z,21.88
2023-08-23T08:45:47.024Z,21.91
2023-08-23T08:48:17.062Z,21.94
2023-08-23T08:50:44.875Z,21.98
2023-08-23T08:53:16.857Z,22.01
2023-08-23T08:55:46.972Z,22.08
2023-08-23T08:58:20.824Z,22.08
2023-08-23T09:00:50.763Z,22.13
2023-08-23T09:03:20.251Z,22.18
2023-08-23T09:05:49.399Z,22.21
2023-08-23T09:08:17.418Z,22.23
2023-08-23T09:10:45.128Z,22.30
2023-08-23T09:13:12.901Z,22.30
2023-08-23T09:15:40.717Z,22.32
2023-08-23T09:18:08.681Z,22.35
2023-08-23T09:20:38.582Z,22.39
2023-08-23T09:23:06.573Z,22.41
2023-08-23T09:25:34.185Z,22.49
2023-08-23T09:28:01.853Z,22.51
2023-08-23T09:30:29.530Z,22.58
2023-08-23T09:32:59.309Z,22.60
2023-08-23T09:35:27.049Z,22.60
2023-08-23T09:37:56.095Z,22.65
2023-08-23T09:40:26.073Z,22.62
2023-08-23T09:42:57.256Z,22.59
2023-08-23T09:45:27.474Z,22.63
2023-08-23T09:47:58.218Z,22.71
2023-08-23T09:50:27.429Z,22.77
2023-08-23T09:53:01.559Z,22.76
2023-08-23T09:55:31.193Z,22.79
2023-08-23T09:57:59.290Z,22.88
2023-08-23T10:00:28.132Z,22.93
2023-08-23T10:02:57.643Z,22.95
2023-08-23T10:05:28.661Z,22.97
2023-08-23T10:07:59.016Z,23.00
2023-08-23T10:10:28.246Z,23.05
2023-08-23T10:13:00.097Z,23.11
2023-08-23T10:15:31.930Z,23.19
2023-08-23T10:18:01.598Z,23.27
2023-08-23T10:20:29.445Z,23.38
2023-08-23T10:22:58.652Z,23.50
2023-08-23T10:25:26.398Z,23.54
2023-08-23T10:27:55.979Z,23.75
2023-08-23T10:30:25.471Z,23.88
2023-08-23T10:32:53.852Z,23.98
2023-08-23T10:35:24.676Z,24.28
2023-08-23T10:37:54.862Z,24.45
2023-08-23T10:40:24.112Z,24.70
2023-08-23T10:42:52.222Z,25.02
2023-08-23T10:45:20.028Z,25.10
2023-08-23T10:47:51.871Z,25.28
2023-08-23T10:50:20.760Z,25.46
2023-08-23T10:52:49.281Z,25.59
2023-08-23T10:55:16.895Z,25.72
2023-08-23T10:57:46.909Z,25.88
2023-08-23T11:00:15.798Z,26.07
2023-08-23T11:02:43.855Z,26.02
2023-08-23T11:05:12.507Z,26.21
2023-08-23T11:07:40.224Z,26.49
2023-08-23T11:10:10.720Z,26.63
2023-08-23T11:12:39.504Z,26.80
2023-08-23T11:15:09.869Z,26.86
2023-08-23T11:17:38.778Z,26.95
2023-08-23T11:20:09.437Z,27.12
2023-08-23T11:22:37.173Z,27.03
2023-08-23T11:25:05.388Z,27.12
2023-08-23T11:27:32.983Z,26.62
2023-08-23T11:30:00.891Z,26.79
2023-08-23T11:32:31.774Z,27.05
2023-08-23T11:35:05.450Z,27.21
2023-08-23T11:37:33.698Z,26.70
2023-08-23T11:40:08.892Z,26.71
2023-08-23T11:42:37.635Z,27.16
2023-08-23T11:45:05.995Z,26.73
2023-08-23T11:47:35.586Z,26.52
2023-08-23T11:50:03.558Z,26.22
2023-08-23T11:52:31.928Z,26.23
2023-08-23T11:55:00.481Z,26.89
2023-08-23T11:57:40.065Z,27.34
2023-08-23T12:00:09.297Z,27.70
2023-08-23T12:02:41.480Z,27.94
2023-08-23T12:05:10.948Z,28.14
2023-08-23T12:07:39.239Z,28.16
2023-08-23T12:10:09.777Z,28.36
2023-08-23T12:12:37.873Z,28.62
2023-08-23T12:15:09.557Z,28.74
2023-08-23T12:17:37.277Z,29.03
2023-08-23T12:20:08.822Z,29.10
2023-08-23T12:22:36.527Z,29.16
2023-08-23T12:25:05.194Z,29.35
2023-08-23T12:27:32.855Z,29.28
2023-08-23T12:30:00.661Z,29.38
2023-08-23T12:32:28.407Z,29.55
2023-08-23T12:34:56.035Z,29.56
2023-08-23T12:37:25.117Z,29.77
2023-08-23T12:39:52.861Z,29.74
2023-08-23T12:42:20.549Z,29.83
2023-08-23T12:44:48.219Z,29.96
2023-08-23T12:47:15.980Z,29.87
2023-08-23T12:49:43.660Z,29.99
2023-08-23T12:52:13.073Z,30.04
2023-08-23T12:54:42.042Z,30.21
2023-08-23T12:57:09.659Z,30.28
2023-08-23T12:59:37.274Z,30.39
2023-08-23T13:02:05.113Z,30.45
2023-08-23T13:04:33.006Z,30.49
2023-08-23T13:07:00.592Z,30.59
2023-08-23T13:09:28.244Z,30.75
2023-08-23T13:11:57.250Z,30.72
2023-08-23T13:14:25.210Z,30.83
2023-08-23T13:16:52.830Z,30.98
2023-08-23T13:19:23.202Z,31.08
2023-08-23T13:21:50.814Z,31.18
2023-08-23T13:24:22.250Z,31.23
2023-08-23T13:26:50.750Z,31.28
2023-08-23T13:29:19.746Z,31.33
2023-08-23T13:31:47.434Z,31.48
2023-08-23T13:34:15.419Z,31.48
2023-08-23T13:36:44.516Z,31.50
2023-08-23T13:39:13.095Z,31.48
2023-08-23T13:41:40.921Z,31.46
2023-08-23T13:44:08.701Z,31.41
2023-08-23T13:46:38.211Z,31.23
2023-08-23T13:49:05.925Z,31.27
2023-08-23T13:51:33.549Z,31.17
2023-08-23T13:54:01.276Z,31.15
2023-08-23T13:56:28.900Z,31.13
2023-08-23T13:58:57.991Z,31.02
2023-08-23T14:01:25.666Z,30.92
2023-08-23T14:03:54.809Z,30.83
2023-08-23T14:06:22.480Z,30.67
2023-08-23T14:08:50.740Z,30.62
2023-08-23T14:11:18.452Z,30.54
2023-08-23T14:13:46.021Z,30.43
2023-08-23T14:16:13.745Z,30.26
2023-08-23T14:18:41.839Z,30.13
2023-08-23T14:21:10.927Z,29.99
2023-08-23T14:23:38.661Z,29.91
2023-08-23T14:26:08.489Z,29.85
2023-08-23T14:28:37.154Z,29.81
2023-08-23T14:31:07.461Z,29.71
2023-08-23T14:33:35.271Z,29.66
2023-08-23T14:36:02.922Z,29.59
2023-08-23T14:38:32.015Z,29.49
2023-08-23T14:40:59.795Z,29.38
2023-08-23T14:43:27.466Z,29.37
2023-08-23T14:45:55.127Z,29.33
2023-08-23T14:48:22.788Z,29.28
2023-08-23T14:50:52.649Z,29.23
2023-08-23T14:53:20.330Z,29.12
2023-08-23T14:55:53.032Z,29.10
2023-08-23T14:58:22.910Z,29.03
2023-08-23T15:00:50.547Z,28.89
2023-08-23T15:03:18.212Z,28.80
2023-08-23T15:05:45.892Z,28.79
2023-08-23T15:08:13.574Z,28.73
2023-08-23T15:10:41.187Z,28.66
2023-08-23T15:13:10.243Z,28.63
2023-08-23T15:15:39.258Z,28.55
2023-08-23T15:18:07.672Z,28.69
2023-08-23T15:20:35.580Z,28.55
2023-08-23T15:23:04.423Z,28.52
2023-08-23T15:25:34.193Z,28.49
2023-08-23T15:28:02.015Z,28.46
2023-08-23T15:30:31.333Z,28.45
2023-08-23T15:32:59.865Z,28.47
2023-08-23T15:35:28.091Z,28.49
2023-08-23T15:37:55.706Z,28.40
2023-08-23T15:40:23.565Z,28.33
2023-08-23T15:42:51.229Z,28.32
2023-08-23T15:45:19.799Z,28.36
2023-08-23T15:47:51.750Z,28.40
2023-08-23T15:50:21.996Z,28.40
2023-08-23T15:52:49.646Z,28.38
2023-08-23T15:55:17.290Z,28.45
2023-08-23T15:57:44.905Z,28.45
2023-08-23T16:00:13.746Z,28.54
2023-08-23T16:02:41.490Z,28.60
2023-08-23T16:05:12.053Z,28.56
2023-08-23T16:07:39.853Z,28.51
2023-08-23T16:10:11.055Z,28.50
2023-08-23T16:12:38.903Z,28.47
2023-08-23T16:15:07.772Z,28.40
2023-08-23T16:17:37.257Z,28.32
2023-08-23T16:20:08.916Z,28.26
2023-08-23T16:22:38.028Z,28.36
2023-08-23T16:25:06.114Z,28.33
2023-08-23T16:27:33.865Z,28.22
2023-08-23T16:30:02.372Z,28.30
2023-08-23T16:32:30.174Z,28.24
2023-08-23T16:34:57.821Z,28.24
2023-08-23T16:37:25.431Z,28.20
2023-08-23T16:39:54.422Z,28.17
2023-08-23T16:42:22.020Z,28.09
2023-08-23T16:44:49.673Z,28.01
2023-08-23T16:47:17.396Z,27.94
2023-08-23T16:49:45.119Z,27.92
2023-08-23T16:52:12.755Z,27.86
2023-08-23T16:54:40.396Z,27.84
2023-08-23T16:57:09.364Z,27.89
2023-08-23T16:59:36.992Z,27.84
2023-08-23T17:02:04.620Z,27.76
2023-08-23T17:04:32.230Z,27.81
2023-08-23T17:06:59.929Z,27.79
2023-08-23T17:09:27.616Z,27.75
2023-08-23T17:11:55.228Z,27.71
2023-08-23T17:14:24.310Z,27.58
2023-08-23T17:16:52.071Z,27.54
2023-08-23T17:19:20.145Z,27.45
2023-08-23T17:21:48.081Z,27.29
2023-08-23T17:24:15.732Z,27.19
2023-08-23T17:26:48.505Z,27.10
2023-08-23T17:29:16.112Z,27.03
2023-08-23T17:31:45.074Z,26.89
2023-08-23T17:34:12.682Z,26.81
2023-08-23T17:36:40.331Z,26.73
2023-08-23T17:39:07.969Z,26.64
2023-08-23T17:41:36.739Z,26.58
2023-08-23T17:44:04.466Z,26.51
2023-08-23T17:46:39.304Z,26.41
2023-08-23T17:49:08.885Z,26.39
2023-08-23T17:51:37.804Z,26.34
2023-08-23T17:54:08.016Z,26.28
2023-08-23T17:56:35.998Z,26.15
2023-08-23T17:59:03.900Z,26.11
2023-08-23T18:01:32.032Z,26.04
2023-08-23T18:03:59.664Z,25.93
2023-08-23T18:06:29.561Z,25.86
2023-08-23T18:08:57.190Z,25.79
2023-08-23T18:11:25.661Z,25.75
2023-08-23T18:13:53.317Z,25.69
2023-08-23T18:16:21.217Z,25.61
2023-08-23T18:18:48.872Z,25.55
2023-08-23T18:21:17.278Z,25.46
2023-08-23T18:23:46.240Z,25.41
2023-08-23T18:26:14.002Z,25.29
2023-08-23T18:28:41.625Z,25.29
2023-08-23T18:31:09.397Z,25.20
2023-08-23T18:33:37.067Z,25.18
2023-08-23T18:36:05.213Z,25.12
2023-08-23T18:38:32.853Z,25.05
2023-08-23T18:41:04.992Z,24.98
2023-08-23T18:43:33.648Z,24.96
2023-08-23T18:46:01.289Z,24.93
2023-08-23T18:48:29.198Z,24.86
2023-08-23T18:51:00.505Z,24.82
2023-08-23T18:53:35.039Z,24.60
2023-08-23T18:56:03.367Z,24.48
2023-08-23T18:58:32.533Z,24.68
2023-08-23T19:01:00.303Z,24.70
2023-08-23T19:03:29.141Z,24.65
2023-08-23T19:05:57.382Z,24.62
2023-08-23T19:08:24.995Z,24.60
2023-08-23T19:10:52.648Z,24.54
2023-08-23T19:13:20.378Z,24.54
2023-08-23T19:15:49.373Z,24.53
2023-08-23T19:18:17.116Z,24.50
2023-08-23T19:20:44.883Z,24.49
2023-08-23T19:23:12.510Z,24.46
2023-08-23T19:25:42.000Z,24.35
2023-08-23T19:28:09.598Z,24.38
2023-08-23T19:30:37.258Z,24.35
2023-08-23T19:33:06.381Z,24.29
2023-08-23T19:35:44.024Z,24.25
2023-08-23T19:38:12.143Z,24.17
2023-08-23T19:40:39.880Z,24.16
2023-08-23T19:43:07.536Z,24.09
2023-08-23T19:45:35.623Z,24.08
2023-08-23T19:48:17.101Z,24.07
2023-08-23T19:50:52.647Z,24.05
2023-08-23T19:53:20.312Z,23.95
2023-08-23T19:55:47.939Z,23.94
2023-08-23T19:58:16.663Z,23.93
2023-08-23T20:00:46.503Z,23.93
2023-08-23T20:03:14.213Z,23.88
2023-08-23T20:05:44.776Z,23.85
2023-08-23T20:08:13.747Z,23.83
2023-08-23T20:13:26.889Z,23.74
2023-08-23T20:15:54.667Z,23.70
2023-08-23T20:18:22.286Z,23.63
2023-08-23T20:20:50.001Z,23.68
2023-08-23T20:23:19.707Z,23.67
2023-08-23T20:25:47.342Z,23.62
2023-08-23T20:28:14.930Z,23.59
2023-08-23T20:30:43.430Z,23.55
2023-08-23T20:33:11.067Z,23.53
2023-08-23T20:35:38.721Z,23.50
2023-08-23T20:38:06.820Z,23.46
2023-08-23T20:40:35.824Z,23.43
2023-08-23T20:43:05.480Z,23.44
2023-08-23T20:45:33.182Z,23.42
2023-08-23T20:48:00.839Z,23.34
2023-08-23T20:50:28.842Z,23.36
2023-08-23T20:52:56.651Z,23.33
2023-08-23T20:55:24.283Z,23.31
2023-08-23T20:57:53.288Z,23.31
2023-08-23T21:00:20.966Z,23.32
2023-08-23T21:02:48.584Z,23.30
2023-08-23T21:05:16.359Z,23.27
2023-08-23T21:07:43.942Z,23.23
2023-08-23T21:10:11.909Z,23.23
2023-08-23T21:12:39.618Z,23.18
2023-08-23T21:15:09.563Z,23.15
2023-08-23T21:17:37.168Z,23.14
2023-08-23T21:20:07.159Z,23.13
2023-08-23T21:22:40.623Z,23.13
2023-08-23T21:25:09.125Z,23.10
2023-08-23T21:27:36.773Z,23.11
2023-08-23T21:30:08.479Z,23.07
2023-08-23T21:32:37.582Z,23.07
2023-08-23T21:35:08.148Z,23.06
2023-08-23T21:37:37.552Z,23.03
2023-08-23T21:40:05.853Z,22.96
2023-08-23T21:42:33.703Z,22.97
2023-08-23T21:45:01.400Z,22.97
2023-08-23T21:47:29.338Z,22.94
2023-08-23T21:49:58.654Z,22.94
2023-08-23T21:52:27.043Z,22.93
2023-08-23T21:54:54.843Z,22.89
2023-08-23T21:57:22.488Z,22.84
2023-08-23T21:59:50.128Z,22.87
2023-08-23T22:02:20.369Z,22.87
2023-08-23T22:04:48.032Z,22.81
2023-08-23T22:07:17.979Z,22.83
2023-08-23T22:09:45.706Z,22.79
2023-08-23T22:12:13.371Z,22.80
2023-08-23T22:14:41.018Z,22.73
2023-08-23T22:17:10.224Z,22.67
2023-08-23T22:19:37.860Z,22.67
2023-08-23T22:22:05.491Z,22.68
2023-08-23T22:24:34.501Z,22.71
2023-08-23T22:27:04.682Z,22.67
2023-08-23T22:29:33.322Z,22.62
2023-08-23T22:32:01.027Z,22.63
2023-08-23T22:34:28.721Z,22.60
2023-08-23T22:36:56.639Z,22.60
2023-08-23T22:39:24.305Z,22.55
2023-08-23T22:41:53.308Z,22.53
2023-08-23T22:44:20.951Z,22.51
2023-08-23T22:46:48.636Z,22.47
2023-08-23T22:49:19.071Z,22.49
2023-08-23T22:51:46.753Z,22.48
2023-08-23T22:54:14.428Z,22.48
2023-08-23T22:56:42.052Z,22.42
2023-08-23T22:59:11.023Z,22.41
2023-08-23T23:01:38.706Z,22.39
2023-08-23T23:04:06.419Z,22.38
2023-08-23T23:06:34.040Z,22.39
2023-08-23T23:09:01.674Z,22.39
2023-08-23T23:11:29.477Z,22.36
2023-08-23T23:13:57.085Z,22.32
2023-08-23T23:16:26.282Z,22.25
2023-08-23T23:18:53.953Z,22.23
2023-08-23T23:21:21.598Z,22.22
2023-08-23T23:23:49.243Z,22.26
2023-08-23T23:26:17.251Z,22.26
2023-08-23T23:28:45.190Z,22.24
2023-08-23T23:31:14.767Z,22.19
2023-08-23T23:33:45.290Z,22.20
2023-08-23T23:36:13.109Z,22.19
2023-08-23T23:38:44.175Z,22.14
2023-08-23T23:41:12.196Z,22.10
2023-08-23T23:43:39.989Z,22.15
2023-08-23T23:46:07.676Z,22.08
2023-08-23T23:48:35.393Z,22.08
2023-08-23T23:51:04.505Z,22.08
2023-08-23T23:53:32.124Z,22.11
2023-08-23T23:55:59.704Z,22.07
2023-08-23T23:58:27.311Z,22.07
